Time;durP1;ratioP1;P1;durP2;ratioP2;P2;SDS_P1;SDS_P2;PMS_P1;PMS_P2;Temp;Humidity;BMP_temperature;BMP_pressure;BME280_temperature;BME280_humidity;BME280_pressure;Samples;Min_cycle;Max_cycle;Signal;HPM_P1;HPM_P2
2021/12/26 00:00:17;;;;;;;;;;;;;;;-24.10;67.80;97860.50;6397768;27;19930;-64
2021/12/26 00:03:22;;;;;;;;;;;;;;;-23.95;68.06;97865.00;6398517;27;20311;-63
2021/12/26 00:06:28;;;;;;;;;;;;;;;-24.01;67.80;97869.47;6398707;27;19930;-63
2021/12/26 00:09:31;;;;;;;;;;;;;;;-24.10;67.97;97865.47;6398153;27;19927;-63
2021/12/26 00:12:35;;;;;;;;;;;;;;;-24.09;68.01;97867.22;6397914;27;19924;-63
2021/12/26 00:15:36;;;;;;;;;;;;;;;-24.02;68.23;97875.19;6398547;27;19970;-63
2021/12/26 00:18:42;;;;;;;;;;;;;;;-24.11;68.40;97863.75;6398407;27;19918;-63
2021/12/26 00:21:43;;;;;;;;;;;;;;;-24.17;68.27;97855.78;6397497;27;20316;-63
2021/12/26 00:24:46;;;;;;;;;;;;;;;-23.96;67.89;97860.78;6398312;27;19923;-63
2021/12/26 00:27:47;;;;;;;;;;;;;;;-23.80;67.65;97843.88;6397358;27;19923;-63
2021/12/26 00:30:50;;;;;;;;;;;;;;;-23.91;67.07;97847.97;6398115;27;20013;-63
2021/12/26 00:33:52;;;;;;;;;;;;;;;-23.71;67.67;97842.13;6397948;27;20311;-63
2021/12/26 00:36:53;;;;;;;;;;;;;;;-23.87;67.10;97849.94;6396687;27;19923;-64
2021/12/26 00:39:54;;;;;;;;;;;;;;;-23.90;67.27;97844.72;6397310;27;19930;-63
2021/12/26 00:42:55;;;;;;;;;;;;;;;-23.89;67.36;97835.63;6396732;27;19923;-63
2021/12/26 00:45:57;;;;;;;;;;;;;;;-24.00;67.22;97857.13;6396937;27;19923;-63
2021/12/26 00:48:58;;;;;;;;;;;;;;;-24.19;67.44;97859.75;6397859;27;20334;-63
2021/12/26 00:52:01;;;;;;;;;;;;;;;-24.27;67.53;97851.63;6397889;27;19923;-63
2021/12/26 00:55:04;;;;;;;;;;;;;;;-23.98;67.64;97858.16;6396616;27;19923;-63
2021/12/26 00:58:06;;;;;;;;;;;;;;;-24.06;67.02;97846.69;6397574;27;19945;-64
2021/12/26 01:01:10;;;;;;;;;;;;;;;-23.97;67.22;97856.53;6397532;27;19927;-63
2021/12/26 01:04:13;;;;;;;;;;;;;;;-23.71;66.89;97857.06;6396413;27;19923;-63
2021/12/26 01:08:17;;;;;;;;;;;;;;;-23.79;66.63;97858.06;6397632;27;19923;-63
2021/12/26 01:10:53;;;;;;;;;;;;;;;-24.00;66.58;97863.75;6375045;27;19967;-62
2021/12/26 01:13:54;;;;;;;;;;;;;;;-23.78;66.66;97859.78;6396749;27;19923;-64
2021/12/26 01:17:04;;;;;;;;;;;;;;;-23.99;66.43;97843.13;6396486;27;19930;-62
2021/12/26 01:20:10;;;;;;;;;;;;;;;-23.97;66.04;97846.56;6395869;27;19923;-63
2021/12/26 01:23:12;;;;;;;;;;;;;;;-23.99;65.54;97838.13;6397289;27;19930;-63
2021/12/26 01:26:16;;;;;;;;;;;;;;;-24.06;65.26;97842.59;6402585;27;19923;-63
2021/12/26 01:29:17;;;;;;;;;;;;;;;-24.10;64.74;97840.59;6402495;27;20453;-64
2021/12/26 01:32:18;;;;;;;;;;;;;;;-24.02;64.62;97832.91;6401644;27;19923;-63
2021/12/26 01:35:19;;;;;;;;;;;;;;;-24.27;64.66;97836.72;6401425;27;19919;-63
2021/12/26 01:38:20;;;;;;;;;;;;;;;-24.40;64.75;97828.94;6402227;27;19923;-63
2021/12/26 01:41:22;;;;;;;;;;;;;;;-24.50;65.11;97832.31;6402325;27;19923;-63
2021/12/26 01:44:23;;;;;;;;;;;;;;;-24.52;65.29;97816.41;6401173;27;20297;-62
2021/12/26 01:47:24;;;;;;;;;;;;;;;-24.69;65.28;97819.09;6401276;27;20316;-63
2021/12/26 01:50:28;;;;;;;;;;;;;;;-24.71;65.39;97820.56;6383840;27;19923;-63
2021/12/26 01:53:36;;;;;;;;;;;;;;;-24.69;65.36;97814.13;6401423;27;20291;-63
2021/12/26 01:56:41;;;;;;;;;;;;;;;-24.59;65.58;97795.91;6401775;27;19923;-63
2021/12/26 01:59:46;;;;;;;;;;;;;;;-24.72;64.99;97789.00;6401588;27;19927;-63
2021/12/26 02:02:53;;;;;;;;;;;;;;;-24.63;65.86;97779.84;6401750;27;20400;-63
2021/12/26 02:05:56;;;;;;;;;;;;;;;-24.71;65.74;97785.75;6401648;27;20316;-63
2021/12/26 02:08:57;;;;;;;;;;;;;;;-24.59;66.12;97776.88;6382342;27;19923;-63
2021/12/26 02:12:01;;;;;;;;;;;;;;;-24.63;66.51;97783.94;6401488;27;19927;-63
2021/12/26 02:15:20;;;;;;;;;;;;;;;-24.64;66.23;97774.75;6401356;27;19953;-64
2021/12/26 02:18:24;;;;;;;;;;;;;;;-24.46;66.32;97782.88;6401284;27;19919;-63
2021/12/26 02:27:56;;;;;;;;;;;;;;;-24.28;65.08;97782.75;6400883;27;19923;-62
2021/12/26 02:30:59;;;;;;;;;;;;;;;-24.44;64.97;97778.91;6400917;27;20025;-64
2021/12/26 02:34:01;;;;;;;;;;;;;;;-24.65;64.98;97771.41;6399786;27;19971;-63
2021/12/26 02:37:02;;;;;;;;;;;;;;;-24.53;65.66;97772.41;6398936;27;19923;-63
2021/12/26 02:40:04;;;;;;;;;;;;;;;-24.56;65.04;97772.16;6399859;27;19934;-63
2021/12/26 02:43:06;;;;;;;;;;;;;;;-24.22;64.98;97769.94;6399680;27;20319;-63
2021/12/26 02:46:09;;;;;;;;;;;;;;;-24.32;64.93;97757.50;6400608;27;19923;-63
2021/12/26 02:49:12;;;;;;;;;;;;;;;-24.14;64.76;97754.03;6400741;27;19922;-63
2021/12/26 02:52:18;;;;;;;;;;;;;;;-24.44;64.71;97736.63;6400522;27;20443;-63
2021/12/26 02:55:19;;;;;;;;;;;;;;;-24.41;64.83;97731.88;6400447;27;19930;-63
2021/12/26 02:58:23;;;;;;;;;;;;;;;-24.11;64.75;97721.94;6400325;27;19923;-64
2021/12/26 03:01:25;;;;;;;;;;;;;;;-24.04;64.32;97735.75;6399715;27;19923;-63
2021/12/26 03:04:26;;;;;;;;;;;;;;;-24.07;64.53;97756.25;6399075;27;20312;-64
2021/12/26 03:07:28;;;;;;;;;;;;;;;-24.14;64.17;97788.88;6399367;27;19923;-63
2021/12/26 03:10:29;;;;;;;;;;;;;;;-24.15;63.64;97776.28;6398924;27;19927;-63
2021/12/26 03:13:30;;;;;;;;;;;;;;;-24.22;63.63;97760.00;6399101;27;19934;-62
2021/12/26 03:16:31;;;;;;;;;;;;;;;-24.27;64.18;97771.19;6399869;27;19930;-63
2021/12/26 03:19:35;;;;;;;;;;;;;;;-24.61;63.88;97773.38;6399988;27;19922;-64
2021/12/26 03:22:38;;;;;;;;;;;;;;;-24.45;64.09;97749.78;6399910;27;19931;-63
2021/12/26 03:25:39;;;;;;;;;;;;;;;-24.77;63.98;97745.50;6398400;27;19929;-63
2021/12/26 03:28:40;;;;;;;;;;;;;;;-25.03;64.40;97744.19;6398609;27;19959;-63
2021/12/26 03:31:42;;;;;;;;;;;;;;;-25.01;64.35;97731.91;6399539;27;20013;-62
2021/12/26 03:34:46;;;;;;;;;;;;;;;-25.05;64.55;97715.84;6398419;27;19958;-62
2021/12/26 03:37:48;;;;;;;;;;;;;;;-24.94;65.34;97716.75;6399359;27;19929;-63
2021/12/26 03:40:50;;;;;;;;;;;;;;;-24.68;65.31;97713.97;6398408;27;20334;-63
2021/12/26 03:43:51;;;;;;;;;;;;;;;-24.45;65.01;97710.91;6398393;27;19930;-63
2021/12/26 03:46:52;;;;;;;;;;;;;;;-24.44;64.39;97730.03;6397747;27;19923;-63
2021/12/26 03:49:53;;;;;;;;;;;;;;;-24.31;64.30;97752.66;6398021;27;19922;-63
2021/12/26 03:52:57;;;;;;;;;;;;;;;-24.30;63.94;97736.13;6398961;27;19925;-63
2021/12/26 03:55:58;;;;;;;;;;;;;;;-24.51;63.81;97707.88;6398056;27;19923;-63
2021/12/26 03:59:01;;;;;;;;;;;;;;;-24.40;63.81;97704.63;6398520;27;20022;-64
2021/12/26 04:02:05;;;;;;;;;;;;;;;-24.26;64.43;97724.03;6398588;27;19923;-63
2021/12/26 04:05:06;;;;;;;;;;;;;;;-23.98;64.55;97716.34;6397502;27;19936;-63
2021/12/26 04:08:07;;;;;;;;;;;;;;;-23.85;64.08;97728.16;6398497;27;19923;-62
2021/12/26 04:11:08;;;;;;;;;;;;;;;-23.77;63.96;97729.66;6398569;27;19923;-63
2021/12/26 04:14:13;;;;;;;;;;;;;;;-23.75;64.06;97737.22;6398616;27;19979;-63
2021/12/26 04:17:14;;;;;;;;;;;;;;;-23.58;63.58;97725.31;6397438;27;19929;-64
2021/12/26 04:20:15;;;;;;;;;;;;;;;-23.41;63.11;97713.34;6397437;27;20404;-63
2021/12/26 04:23:18;;;;;;;;;;;;;;;-23.62;63.28;97715.88;6398279;27;19930;-64
2021/12/26 04:26:20;;;;;;;;;;;;;;;-23.37;63.52;97696.28;6396812;27;20281;-65
2021/12/26 04:29:21;;;;;;;;;;;;;;;-23.38;63.58;97698.63;6397982;27;19923;-63
2021/12/26 04:32:25;;;;;;;;;;;;;;;-23.17;63.92;97700.31;6398009;27;19930;-64
2021/12/26 04:35:27;;;;;;;;;;;;;;;-22.95;62.78;97696.94;6397983;27;19922;-63
2021/12/26 04:38:28;;;;;;;;;;;;;;;-22.78;61.86;97689.13;6397266;27;19929;-64
2021/12/26 04:41:29;;;;;;;;;;;;;;;-22.98;61.87;97676.78;6397986;27;19968;-63
2021/12/26 04:44:30;;;;;;;;;;;;;;;-22.78;62.00;97684.16;6397201;27;19927;-63
2021/12/26 04:47:31;;;;;;;;;;;;;;;-22.83;62.55;97687.91;6397342;27;20319;-63
2021/12/26 04:50:35;;;;;;;;;;;;;;;-22.64;62.63;97690.19;6397760;27;20056;-63
2021/12/26 04:53:36;;;;;;;;;;;;;;;-22.61;63.21;97704.47;6396702;27;19923;-63
2021/12/26 04:56:37;;;;;;;;;;;;;;;-22.47;63.55;97678.94;6397495;27;19919;-64
2021/12/26 04:59:38;;;;;;;;;;;;;;;-22.44;63.50;97684.19;6397312;27;19922;-63
2021/12/26 05:02:42;;;;;;;;;;;;;;;-22.04;63.68;97692.06;6397410;27;20049;-65
2021/12/26 05:05:44;;;;;;;;;;;;;;;-22.00;63.77;97684.03;6396231;27;20360;-63
2021/12/26 05:08:45;;;;;;;;;;;;;;;-21.60;64.26;97671.91;6397417;27;19923;-63
2021/12/26 05:11:48;;;;;;;;;;;;;;;-21.61;64.27;97671.06;6397340;27;19923;-63
2021/12/26 05:14:52;;;;;;;;;;;;;;;-21.28;63.75;97665.78;6397126;27;19923;-64
2021/12/26 05:17:56;;;;;;;;;;;;;;;-21.17;63.41;97654.91;6397272;27;19923;-63
2021/12/26 05:20:59;;;;;;;;;;;;;;;-21.22;63.65;97667.09;6397312;27;19923;-63
2021/12/26 05:24:00;;;;;;;;;;;;;;;-20.93;63.10;97676.59;6397217;27;19930;-64
2021/12/26 05:27:01;;;;;;;;;;;;;;;-20.78;64.07;97681.78;6396040;27;20048;-64
2021/12/26 05:30:06;;;;;;;;;;;;;;;-20.71;63.95;97688.09;6397013;27;20021;-65
2021/12/26 05:33:07;;;;;;;;;;;;;;;-20.50;63.56;97689.50;6396142;27;19923;-63
2021/12/26 05:36:08;;;;;;;;;;;;;;;-20.69;63.65;97696.56;6396247;27;20082;-63
2021/12/26 05:39:09;;;;;;;;;;;;;;;-20.40;63.37;97699.38;6396778;27;19927;-64
2021/12/26 05:42:15;;;;;;;;;;;;;;;-20.50;63.44;97694.50;6397110;27;19968;-64
2021/12/26 05:45:19;;;;;;;;;;;;;;;-20.42;62.84;97703.41;6396941;27;19923;-64
2021/12/26 05:48:20;;;;;;;;;;;;;;;-20.16;62.41;97694.25;6395984;27;19923;-64
2021/12/26 05:51:23;;;;;;;;;;;;;;;-20.16;63.63;97686.75;6396822;27;19922;-64
2021/12/26 05:54:24;;;;;;;;;;;;;;;-20.12;64.00;97688.72;6395774;27;19937;-63
2021/12/26 05:57:25;;;;;;;;;;;;;;;-19.89;62.91;97686.84;6396283;27;20038;-65
2021/12/26 06:00:29;;;;;;;;;;;;;;;-20.03;62.99;97664.25;6395779;27;19927;-64
2021/12/26 06:03:32;;;;;;;;;;;;;;;-19.84;63.54;97666.34;6396807;27;20400;-65
2021/12/26 06:06:36;;;;;;;;;;;;;;;-19.58;61.93;97650.41;6396448;27;20045;-65
2021/12/26 06:09:37;;;;;;;;;;;;;;;-19.67;61.86;97659.88;6396933;27;20293;-64
2021/12/26 06:12:38;;;;;;;;;;;;;;;-19.69;62.26;97630.50;6401397;27;19975;-65
2021/12/26 06:15:39;;;;;;;;;;;;;;;-19.63;62.65;97625.84;6401295;27;19923;-65
2021/12/26 06:18:40;;;;;;;;;;;;;;;-19.45;61.32;97626.13;6400905;27;19930;-65
2021/12/26 06:21:41;;;;;;;;;;;;;;;-19.60;62.55;97626.91;6401709;27;20435;-64
2021/12/26 06:24:45;;;;;;;;;;;;;;;-19.54;62.25;97621.41;6400880;27;19923;-64
2021/12/26 06:27:48;;;;;;;;;;;;;;;-19.51;62.92;97614.94;6400664;27;19923;-64
2021/12/26 06:30:49;;;;;;;;;;;;;;;-19.33;63.07;97626.88;6400575;27;19923;-64
2021/12/26 06:33:52;;;;;;;;;;;;;;;-19.14;61.54;97612.19;6400551;27;19991;-62
2021/12/26 06:36:53;;;;;;;;;;;;;;;-19.46;61.77;97609.34;6400849;27;19992;-65
2021/12/26 06:39:54;;;;;;;;;;;;;;;-19.23;61.73;97591.56;6400820;27;20392;-66
2021/12/26 06:42:55;;;;;;;;;;;;;;;-19.10;61.00;97594.06;6400363;27;19923;-62
2021/12/26 06:45:56;;;;;;;;;;;;;;;-19.19;61.40;97611.03;6400088;27;20360;-64
2021/12/26 06:48:57;;;;;;;;;;;;;;;-18.95;61.00;97599.13;6400807;27;19930;-64
2021/12/26 06:52:00;;;;;;;;;;;;;;;-19.23;60.36;97604.13;6400216;27;19919;-64
2021/12/26 06:55:02;;;;;;;;;;;;;;;-18.94;61.35;97610.03;6399552;27;19923;-65
2021/12/26 06:58:04;;;;;;;;;;;;;;;-18.83;61.66;97602.38;6399006;27;19923;-64
2021/12/26 07:01:07;;;;;;;;;;;;;;;-18.84;60.47;97605.66;6400217;27;19919;-64
2021/12/26 07:04:08;;;;;;;;;;;;;;;-18.94;61.08;97608.38;6400045;27;19930;-65
2021/12/26 07:07:13;;;;;;;;;;;;;;;-18.86;61.23;97617.25;6399623;27;20396;-64
2021/12/26 07:10:17;;;;;;;;;;;;;;;-18.72;61.09;97614.69;6398772;27;19930;-65
2021/12/26 07:13:21;;;;;;;;;;;;;;;-18.68;60.39;97612.44;6398978;27;19923;-64
2021/12/26 07:16:23;;;;;;;;;;;;;;;-18.72;60.08;97600.47;6398950;27;19923;-64
2021/12/26 07:19:24;;;;;;;;;;;;;;;-18.61;60.41;97598.59;6398967;27;19923;-64
2021/12/26 07:22:25;;;;;;;;;;;;;;;-18.51;61.09;97594.97;6397259;27;19930;-64
2021/12/26 07:25:28;;;;;;;;;;;;;;;-18.32;59.36;97592.78;6398456;27;20017;-65
2021/12/26 07:28:32;;;;;;;;;;;;;;;-18.44;59.35;97597.94;6399217;27;19930;-65
2021/12/26 07:31:33;;;;;;;;;;;;;;;-18.41;59.22;97592.25;6399567;27;19930;-65
2021/12/26 07:34:40;;;;;;;;;;;;;;;-18.43;59.37;97598.81;6398374;27;19923;-64
2021/12/26 07:37:41;;;;;;;;;;;;;;;-18.48;59.42;97582.59;6399301;27;19923;-64
2021/12/26 07:40:42;;;;;;;;;;;;;;;-18.36;59.88;97583.34;6399141;27;20455;-64
2021/12/26 07:43:43;;;;;;;;;;;;;;;-18.27;59.09;97571.31;6398900;27;19930;-64
2021/12/26 07:46:46;;;;;;;;;;;;;;;-17.98;59.39;97579.63;6398897;27;20025;-64
2021/12/26 07:49:47;;;;;;;;;;;;;;;-17.83;58.85;97560.41;6398568;27;19945;-64
2021/12/26 07:52:51;;;;;;;;;;;;;;;-17.83;58.66;97555.38;6397388;27;19930;-64
2021/12/26 07:55:52;;;;;;;;;;;;;;;-17.77;58.59;97560.69;6398488;27;19934;-64
2021/12/26 07:58:53;;;;;;;;;;;;;;;-17.75;57.88;97555.75;6398624;27;19923;-64
2021/12/26 08:01:54;;;;;;;;;;;;;;;-17.73;58.29;97546.66;6398434;27;19995;-64
2021/12/26 08:04:55;;;;;;;;;;;;;;;-17.58;58.19;97536.56;6397353;27;19929;-64
2021/12/26 08:07:59;;;;;;;;;;;;;;;-17.55;58.38;97529.19;6397396;27;19923;-64
2021/12/26 08:11:00;;;;;;;;;;;;;;;-17.45;58.17;97534.78;6397730;27;20422;-64
2021/12/26 08:14:01;;;;;;;;;;;;;;;-17.36;57.46;97523.50;6397778;27;20018;-64
2021/12/26 08:17:02;;;;;;;;;;;;;;;-17.40;57.42;97507.38;6397952;27;20300;-65
2021/12/26 08:20:03;;;;;;;;;;;;;;;-17.14;56.95;97516.28;6397979;27;19923;-64
2021/12/26 08:23:04;;;;;;;;;;;;;;;-17.02;56.16;97495.94;6396803;27;19923;-64
2021/12/26 08:26:05;;;;;;;;;;;;;;;-16.76;56.57;97500.59;6396574;27;20998;-64
2021/12/26 08:29:07;;;;;;;;;;;;;;;-16.55;56.24;97490.75;6397781;27;19980;-65
2021/12/26 08:32:13;;;;;;;;;;;;;;;-16.20;55.47;97488.22;6397274;27;20382;-63
2021/12/26 08:35:19;;;;;;;;;;;;;;;-15.81;54.66;97498.50;6398070;27;19926;-63
2021/12/26 08:38:21;;;;;;;;;;;;;;;-15.57;54.25;97484.44;6396596;27;19937;-64
2021/12/26 08:41:23;;;;;;;;;;;;;;;-15.47;54.07;97485.75;6396561;27;20055;-64
2021/12/26 08:44:24;;;;;;;;;;;;;;;-15.03;54.86;97489.38;6396166;27;19983;-64
2021/12/26 08:47:25;;;;;;;;;;;;;;;-14.36;51.75;97486.34;6396997;27;19923;-64
2021/12/26 08:50:27;;;;;;;;;;;;;;;-14.60;51.59;97476.09;6397139;27;19975;-64
2021/12/26 08:53:28;;;;;;;;;;;;;;;-15.03;51.99;97480.19;6397039;27;19930;-64
2021/12/26 08:56:29;;;;;;;;;;;;;;;-15.51;52.74;97464.56;6397418;27;20312;-64
2021/12/26 08:59:31;;;;;;;;;;;;;;;-15.83;54.88;97459.72;6396463;27;20467;-64
2021/12/26 09:02:32;;;;;;;;;;;;;;;-16.04;53.99;97450.38;6377941;27;19923;-65
2021/12/26 09:05:35;;;;;;;;;;;;;;;-16.53;55.88;97453.94;6396756;27;19930;-64
2021/12/26 09:08:39;;;;;;;;;;;;;;;-16.83;56.46;97438.19;6396991;27;19922;-64
2021/12/26 09:11:42;;;;;;;;;;;;;;;-16.94;57.33;97438.44;6397299;27;19927;-64
2021/12/26 09:14:45;;;;;;;;;;;;;;;-16.73;57.27;97444.50;6397188;27;19923;-64
2021/12/26 09:17:48;;;;;;;;;;;;;;;-16.75;56.84;97452.00;6396481;27;19930;-64
2021/12/26 09:20:49;;;;;;;;;;;;;;;-16.83;57.02;97452.44;6397061;27;19999;-64
2021/12/26 09:23:50;;;;;;;;;;;;;;;-16.87;57.36;97461.47;6395592;27;19923;-64
2021/12/26 09:26:52;;;;;;;;;;;;;;;-16.90;57.53;97476.41;6396770;27;19930;-64
2021/12/26 09:29:55;;;;;;;;;;;;;;;-16.86;57.05;97473.28;6396730;27;19923;-63
2021/12/26 09:32:56;;;;;;;;;;;;;;;-17.09;56.38;97476.28;6395845;27;19919;-64
2021/12/26 09:35:57;;;;;;;;;;;;;;;-16.99;57.46;97491.06;6396958;27;20300;-64
2021/12/26 09:39:03;;;;;;;;;;;;;;;-17.14;57.28;97465.13;6395855;27;19926;-64
2021/12/26 09:42:04;;;;;;;;;;;;;;;-17.29;58.07;97461.03;6396880;27;20021;-64
2021/12/26 09:45:10;;;;;;;;;;;;;;;-17.25;58.71;97432.72;6398362;27;19976;-64
2021/12/26 09:48:22;;;;;;;;;;;;;;;-17.11;58.04;97425.88;6402144;27;19923;-62
2021/12/26 09:51:24;;;;;;;;;;;;;;;-17.34;58.30;97412.13;6401880;27;20396;-66
2021/12/26 09:54:25;;;;;;;;;;;;;;;-17.29;58.54;97390.59;6400512;27;19933;-63
2021/12/26 09:57:27;;;;;;;;;;;;;;;-17.38;59.04;97404.34;6400607;27;19922;-65
2021/12/26 10:00:28;;;;;;;;;;;;;;;-17.34;59.31;97412.13;6400516;27;20292;-63
2021/12/26 10:03:36;;;;;;;;;;;;;;;-17.54;59.29;97422.81;6401332;27;19923;-65
2021/12/26 10:06:37;;;;;;;;;;;;;;;-17.62;60.49;97409.84;6400110;27;19923;-64
2021/12/26 10:09:50;;;;;;;;;;;;;;;-17.58;61.47;97423.41;6401064;27;20087;-65
2021/12/26 10:12:51;;;;;;;;;;;;;;;-17.49;61.36;97411.31;6400440;27;19923;-63
2021/12/26 10:15:54;;;;;;;;;;;;;;;-17.25;61.26;97397.50;6400980;27;20388;-63
2021/12/26 10:18:56;;;;;;;;;;;;;;;-17.16;61.22;97392.06;6400463;27;20330;-64
2021/12/26 10:21:58;;;;;;;;;;;;;;;-17.07;61.67;97366.50;6400413;27;19923;-65
2021/12/26 10:24:59;;;;;;;;;;;;;;;-17.13;62.08;97351.97;6399945;27;20101;-66
2021/12/26 10:28:10;;;;;;;;;;;;;;;-17.38;62.62;97359.91;6399968;27;19923;-64
2021/12/26 10:31:15;;;;;;;;;;;;;;;-17.12;63.38;97358.75;6398761;27;19923;-65
2021/12/26 10:34:19;;;;;;;;;;;;;;;-17.21;62.70;97369.22;6400649;27;19923;-63
2021/12/26 10:37:28;;;;;;;;;;;;;;;-17.24;63.17;97363.13;6400516;27;19929;-64
2021/12/26 10:40:33;;;;;;;;;;;;;;;-17.16;62.95;97366.91;6400526;27;20076;-65
2021/12/26 10:43:45;;;;;;;;;;;;;;;-17.15;62.21;97375.31;6399248;27;20017;-64
2021/12/26 10:46:51;;;;;;;;;;;;;;;-17.33;62.92;97385.31;6400390;27;20021;-63
2021/12/26 10:49:52;;;;;;;;;;;;;;;-17.30;62.73;97363.69;6399251;27;19930;-64
2021/12/26 10:53:04;;;;;;;;;;;;;;;-17.38;63.03;97354.91;6400235;27;19923;-64
2021/12/26 10:56:08;;;;;;;;;;;;;;;-17.46;63.41;97361.22;6398617;27;20396;-63
2021/12/26 10:59:18;;;;;;;;;;;;;;;-17.36;63.21;97368.41;6399814;27;20017;-64
2021/12/26 11:02:25;;;;;;;;;;;;;;;-17.35;62.87;97355.06;6399088;27;19929;-64
2021/12/26 11:05:30;;;;;;;;;;;;;;;-17.45;63.18;97348.69;6399947;27;19930;-64
2021/12/26 11:08:39;;;;;;;;;;;;;;;-17.52;63.98;97345.78;6400058;27;19923;-63
2021/12/26 11:11:56;;;;;;;;;;;;;;;-17.39;63.83;97357.34;6399858;27;20355;-63
2021/12/26 11:14:58;;;;;;;;;;;;;;;-17.38;63.58;97364.94;6398743;27;19923;-64
2021/12/26 11:18:09;;;;;;;;;;;;;;;-17.33;63.98;97340.91;6399756;27;20388;-64
2021/12/26 11:21:14;;;;;;;;;;;;;;;-17.27;64.30;97323.59;6399459;27;20389;-64
2021/12/26 11:24:15;;;;;;;;;;;;;;;-17.22;64.24;97309.59;6398387;27;19922;-64
2021/12/26 11:27:16;;;;;;;;;;;;;;;-17.23;64.07;97302.84;6399135;27;19923;-65
2021/12/26 11:30:17;;;;;;;;;;;;;;;-17.05;64.47;97315.47;6398465;27;20304;-65
2021/12/26 11:33:19;;;;;;;;;;;;;;;-17.00;64.04;97338.34;6399461;27;20274;-64
2021/12/26 11:36:20;;;;;;;;;;;;;;;-17.07;64.41;97331.28;6399187;27;19927;-65
2021/12/26 11:39:22;;;;;;;;;;;;;;;-16.99;63.93;97347.59;6398216;27;19930;-64
2021/12/26 11:42:29;;;;;;;;;;;;;;;-17.07;64.31;97326.22;6397696;27;20380;-64
2021/12/26 11:45:30;;;;;;;;;;;;;;;-17.19;64.79;97315.59;6398078;27;20021;-64
2021/12/26 11:48:55;;;;;;;;;;;;;;;-17.22;65.16;97331.38;6398983;27;19922;-64
2021/12/26 11:52:03;;;;;;;;;;;;;;;-17.16;65.18;97330.81;6399014;27;19967;-64
2021/12/26 11:55:04;;;;;;;;;;;;;;;-17.20;65.41;97339.88;6398630;27;19923;-64
2021/12/26 11:58:23;;;;;;;;;;;;;;;-17.29;65.25;97345.31;6398692;27;19923;-64
2021/12/26 12:01:26;;;;;;;;;;;;;;;-17.28;65.26;97324.41;6398677;27;19930;-65
2021/12/26 12:04:27;;;;;;;;;;;;;;;-17.25;65.13;97337.13;6397823;27;20316;-65
2021/12/26 12:07:42;;;;;;;;;;;;;;;-17.27;65.20;97340.34;6396799;27;19927;-64
2021/12/26 12:10:55;;;;;;;;;;;;;;;-17.28;65.11;97326.91;6397908;27;19923;-64
2021/12/26 12:13:56;;;;;;;;;;;;;;;-17.26;65.14;97297.69;6397075;27;20311;-63
2021/12/26 12:17:26;;;;;;;;;;;;;;;-17.20;65.14;97307.19;6398209;27;19958;-63
2021/12/26 12:20:33;;;;;;;;;;;;;;;-17.29;65.28;97316.75;6369412;27;19930;-64
2021/12/26 12:23:37;;;;;;;;;;;;;;;-17.24;65.54;97311.16;6397378;27;20396;-64
2021/12/26 12:26:45;;;;;;;;;;;;;;;-17.19;65.62;97325.66;6397807;27;19923;-63
2021/12/26 12:29:50;;;;;;;;;;;;;;;-17.11;65.15;97319.34;6397900;27;19923;-64
2021/12/26 12:33:10;;;;;;;;;;;;;;;-17.06;65.25;97318.78;6397814;27;19941;-64
2021/12/26 12:36:23;;;;;;;;;;;;;;;-16.94;64.99;97331.09;6397725;27;19923;-64
2021/12/26 12:39:24;;;;;;;;;;;;;;;-16.90;64.82;97320.38;6397069;27;20068;-64
2021/12/26 12:42:25;;;;;;;;;;;;;;;-16.96;64.79;97325.09;6397718;27;19922;-64
2021/12/26 12:45:27;;;;;;;;;;;;;;;-16.80;64.71;97337.66;6397167;27;19976;-63
2021/12/26 12:48:30;;;;;;;;;;;;;;;-16.62;64.17;97316.63;6398108;27;19946;-64
2021/12/26 12:51:33;;;;;;;;;;;;;;;-16.78;64.35;97303.34;6396660;27;19923;-66
2021/12/26 12:54:34;;;;;;;;;;;;;;;-16.74;64.85;97286.69;6396626;27;20409;-65
2021/12/26 12:57:42;;;;;;;;;;;;;;;-16.65;64.98;97278.72;6397474;27;19929;-66
2021/12/26 13:00:43;;;;;;;;;;;;;;;-16.67;64.92;97278.66;6397905;27;20329;-66
2021/12/26 13:03:56;;;;;;;;;;;;;;;-16.61;64.86;97293.19;6397794;27;19923;-64
2021/12/26 13:06:58;;;;;;;;;;;;;;;-16.64;64.82;97295.53;6396955;27;20376;-65
2021/12/26 13:10:10;;;;;;;;;;;;;;;-16.36;64.62;97295.16;6397183;27;19962;-64
2021/12/26 13:13:16;;;;;;;;;;;;;;;-16.31;63.91;97304.66;6397419;27;19930;-64
2021/12/26 13:16:28;;;;;;;;;;;;;;;-16.43;64.34;97288.97;6397370;27;19923;-63
2021/12/26 13:19:30;;;;;;;;;;;;;;;-16.36;64.32;97249.81;6396997;27;19929;-64
2021/12/26 13:22:49;;;;;;;;;;;;;;;-16.39;64.39;97245.50;6402631;27;19923;-65
2021/12/26 13:25:56;;;;;;;;;;;;;;;-16.20;64.40;97251.38;6402620;27;19923;-64
2021/12/26 13:29:00;;;;;;;;;;;;;;;-16.09;64.03;97220.81;6401808;27;19934;-64
2021/12/26 13:32:02;;;;;;;;;;;;;;;-16.21;64.40;97249.66;6401388;27;19923;-64
2021/12/26 13:35:03;;;;;;;;;;;;;;;-16.14;64.46;97231.47;6401165;27;19930;-64
2021/12/26 13:38:06;;;;;;;;;;;;;;;-16.05;64.14;97257.06;6400994;27;19945;-63
2021/12/26 13:41:13;;;;;;;;;;;;;;;-16.07;64.43;97258.69;6402092;27;20380;-63
2021/12/26 13:44:18;;;;;;;;;;;;;;;-16.05;64.26;97252.03;6401897;27;19938;-63
2021/12/26 13:47:19;;;;;;;;;;;;;;;-16.14;64.42;97231.47;6400840;27;19946;-63
2021/12/26 13:50:23;;;;;;;;;;;;;;;-16.08;64.87;97236.78;6402017;27;19923;-63
2021/12/26 13:53:24;;;;;;;;;;;;;;;-16.07;64.41;97223.41;6401218;27;19923;-64
2021/12/26 13:56:25;;;;;;;;;;;;;;;-16.00;64.36;97210.25;6401692;27;19923;-63
2021/12/26 13:59:29;;;;;;;;;;;;;;;-16.10;64.68;97215.72;6401127;27;20413;-64
2021/12/26 14:02:32;;;;;;;;;;;;;;;-15.95;64.39;97216.38;6401115;27;19927;-64
2021/12/26 14:05:36;;;;;;;;;;;;;;;-15.96;64.63;97227.25;6401337;27;19923;-64
2021/12/26 14:08:37;;;;;;;;;;;;;;;-16.03;64.92;97227.78;6400689;27;19930;-64
2021/12/26 14:11:40;;;;;;;;;;;;;;;-15.98;64.59;97228.84;6401472;27;20414;-64
2021/12/26 14:14:41;;;;;;;;;;;;;;;-15.98;64.72;97231.34;6401289;27;19927;-63
2021/12/26 14:17:55;;;;;;;;;;;;;;;-16.06;65.34;97232.69;6400264;27;19930;-63
2021/12/26 14:21:02;;;;;;;;;;;;;;;-15.95;65.53;97249.13;6400603;27;19923;-63
2021/12/26 14:24:03;;;;;;;;;;;;;;;-16.05;65.86;97236.91;6401185;27;19930;-64
2021/12/26 14:27:05;;;;;;;;;;;;;;;-16.04;66.26;97228.56;6400170;27;19923;-64
2021/12/26 14:30:07;;;;;;;;;;;;;;;-15.98;66.30;97231.34;6400667;27;19929;-64
2021/12/26 14:33:13;;;;;;;;;;;;;;;-15.90;66.52;97222.47;6401054;27;20315;-63
2021/12/26 14:36:15;;;;;;;;;;;;;;;-15.97;66.33;97207.00;6399668;27;19923;-63
2021/12/26 14:39:16;;;;;;;;;;;;;;;-15.91;66.88;97200.56;6400076;27;19923;-64
2021/12/26 14:42:19;;;;;;;;;;;;;;;-15.82;66.81;97206.78;6399666;27;19945;-63
2021/12/26 14:45:20;;;;;;;;;;;;;;;-15.80;66.91;97188.41;6399826;27;19991;-65
2021/12/26 14:48:34;;;;;;;;;;;;;;;-15.69;66.87;97202.31;6400636;27;19952;-64
2021/12/26 14:51:38;;;;;;;;;;;;;;;-15.75;66.68;97206.25;6400309;27;20311;-64
2021/12/26 14:54:42;;;;;;;;;;;;;;;-15.66;67.46;97212.50;6399392;27;20061;-64
2021/12/26 14:57:45;;;;;;;;;;;;;;;-15.61;66.71;97210.19;6399977;27;20260;-65
2021/12/26 15:00:50;;;;;;;;;;;;;;;-15.77;66.91;97217.94;6399115;27;19923;-64
2021/12/26 15:04:03;;;;;;;;;;;;;;;-15.62;67.43;97211.00;6399036;27;20319;-63
2021/12/26 15:07:08;;;;;;;;;;;;;;;-15.64;67.70;97212.59;6399928;27;20296;-64
2021/12/26 15:10:13;;;;;;;;;;;;;;;-15.55;67.22;97215.47;6399924;27;20417;-64
2021/12/26 15:13:15;;;;;;;;;;;;;;;-15.42;67.05;97197.53;6398514;27;19923;-65
2021/12/26 15:16:25;;;;;;;;;;;;;;;-15.44;67.05;97208.38;6398725;27;19930;-64
2021/12/26 15:19:37;;;;;;;;;;;;;;;-15.47;67.33;97193.09;6398969;27;19938;-64
2021/12/26 15:22:40;;;;;;;;;;;;;;;-15.49;67.36;97190.50;6400072;27;20407;-66
2021/12/26 15:25:44;;;;;;;;;;;;;;;-15.46;67.51;97190.63;6399377;27;19923;-65
2021/12/26 15:28:48;;;;;;;;;;;;;;;-15.45;67.60;97186.47;6399167;27;19931;-65
2021/12/26 15:31:49;;;;;;;;;;;;;;;-15.43;67.52;97188.22;6398731;27;19923;-66
2021/12/26 15:34:54;;;;;;;;;;;;;;;-15.37;68.01;97169.94;6399355;27;19919;-65
2021/12/26 15:37:55;;;;;;;;;;;;;;;-15.30;67.34;97150.91;6398880;27;20299;-65
2021/12/26 15:40:59;;;;;;;;;;;;;;;-15.44;68.03;97158.75;6398835;27;19926;-66
2021/12/26 15:44:01;;;;;;;;;;;;;;;-15.50;68.03;97157.66;6398202;27;20007;-66
2021/12/26 15:47:03;;;;;;;;;;;;;;;-15.34;68.26;97154.06;6398974;27;19922;-65